sensor_id;sensor_type;location;lat;lon;timestamp;pressure;altitude;pressure_sealevel;temperature;humidity
21357;BME280;10836;53.068;18.234;2023-04-08T00:00:48;101607.50;;;4.39;100.00
21357;BME280;10836;53.068;18.234;2023-04-08T00:03:19;101604.16;;;4.37;100.00
21357;BME280;10836;53.068;18.234;2023-04-08T00:05:46;101616.66;;;4.45;100.00
21357;BME280;10836;53.068;18.234;2023-04-08T00:08:13;101608.94;;;4.42;100.00
21357;BME280;10836;53.068;18.234;2023-04-08T00:10:40;101613.53;;;4.41;100.00
21357;BME280;10836;53.068;18.234;2023-04-08T00:13:07;101611.28;;;4.31;100.00
21357;BME280;10836;53.068;18.234;2023-04-08T00:15:35;101620.44;;;4.30;100.00
21357;BME280;10836;53.068;18.234;2023-04-08T00:18:02;101620.03;;;4.14;100.00
21357;BME280;10836;53.068;18.234;2023-04-08T00:20:29;101617.09;;;4.15;100.00
21357;BME280;10836;53.068;18.234;2023-04-08T00:22:56;101616.47;;;4.13;100.00
21357;BME280;10836;53.068;18.234;2023-04-08T00:25:24;101617.53;;;4.06;100.00
21357;BME280;10836;53.068;18.234;2023-04-08T00:27:51;101625.81;;;3.97;100.00
21357;BME280;10836;53.068;18.234;2023-04-08T00:30:18;101617.97;;;3.89;100.00
21357;BME280;10836;53.068;18.234;2023-04-08T00:32:45;101624.59;;;3.87;100.00
21357;BME280;10836;53.068;18.234;2023-04-08T00:35:13;101628.94;;;3.75;100.00
21357;BME280;10836;53.068;18.234;2023-04-08T00:37:40;101626.25;;;3.81;100.00
21357;BME280;10836;53.068;18.234;2023-04-08T00:40:07;101624.16;;;3.70;100.00
21357;BME280;10836;53.068;18.234;2023-04-08T00:42:34;101630.78;;;3.61;100.00
21357;BME280;10836;53.068;18.234;2023-04-08T00:45:01;101634.94;;;3.57;100.00
21357;BME280;10836;53.068;18.234;2023-04-08T00:47:30;101631.59;;;3.42;100.00
21357;BME280;10836;53.068;18.234;2023-04-08T00:49:57;101634.47;;;3.33;100.00
21357;BME280;10836;53.068;18.234;2023-04-08T00:52:24;101633.19;;;3.23;100.00
21357;BME280;10836;53.068;18.234;2023-04-08T00:54:52;101642.94;;;3.24;100.00
21357;BME280;10836;53.068;18.234;2023-04-08T00:57:18;101642.75;;;3.25;100.00
21357;BME280;10836;53.068;18.234;2023-04-08T00:59:46;101637.81;;;3.36;100.00
21357;BME280;10836;53.068;18.234;2023-04-08T01:02:35;101641.09;;;3.24;100.00
21357;BME280;10836;53.068;18.234;2023-04-08T01:05:13;101649.13;;;3.11;100.00
21357;BME280;10836;53.068;18.234;2023-04-08T01:07:48;101647.22;;;3.05;100.00
21357;BME280;10836;53.068;18.234;2023-04-08T01:10:21;101643.66;;;2.91;100.00
21357;BME280;10836;53.068;18.234;2023-04-08T01:12:56;101651.06;;;2.83;100.00
21357;BME280;10836;53.068;18.234;2023-04-08T01:15:25;101660.50;;;2.65;100.00
21357;BME280;10836;53.068;18.234;2023-04-08T01:17:54;101655.69;;;2.61;100.00
21357;BME280;10836;53.068;18.234;2023-04-08T01:20:24;101653.63;;;2.56;100.00
21357;BME280;10836;53.068;18.234;2023-04-08T01:25:33;101655.16;;;2.38;100.00
21357;BME280;10836;53.068;18.234;2023-04-08T01:28:12;101658.72;;;2.45;100.00
21357;BME280;10836;53.068;18.234;2023-04-08T01:30:42;101657.50;;;2.47;100.00
21357;BME280;10836;53.068;18.234;2023-04-08T01:33:12;101662.66;;;2.42;100.00
21357;BME280;10836;53.068;18.234;2023-04-08T01:35:40;101658.53;;;2.46;100.00
21357;BME280;10836;53.068;18.234;2023-04-08T01:38:08;101665.09;;;2.37;100.00
21357;BME280;10836;53.068;18.234;2023-04-08T01:40:38;101659.22;;;2.27;100.00
21357;BME280;10836;53.068;18.234;2023-04-08T01:43:07;101669.09;;;2.20;100.00
21357;BME280;10836;53.068;18.234;2023-04-08T01:45:37;101660.97;;;2.13;100.00
21357;BME280;10836;53.068;18.234;2023-04-08T01:48:04;101674.72;;;1.97;100.00
21357;BME280;10836;53.068;18.234;2023-04-08T01:50:33;101668.75;;;2.02;100.00
21357;BME280;10836;53.068;18.234;2023-04-08T01:53:01;101675.28;;;1.92;100.00
21357;BME280;10836;53.068;18.234;2023-04-08T01:55:32;101675.03;;;1.87;100.00
21357;BME280;10836;53.068;18.234;2023-04-08T01:57:59;101675.41;;;1.84;100.00
21357;BME280;10836;53.068;18.234;2023-04-08T02:00:29;101684.22;;;1.72;100.00
21357;BME280;10836;53.068;18.234;2023-04-08T02:02:57;101684.25;;;1.57;100.00
21357;BME280;10836;53.068;18.234;2023-04-08T02:05:25;101690.41;;;1.51;100.00
21357;BME280;10836;53.068;18.234;2023-04-08T02:07:52;101687.81;;;1.43;100.00
21357;BME280;10836;53.068;18.234;2023-04-08T02:10:19;101692.28;;;1.36;100.00
21357;BME280;10836;53.068;18.234;2023-04-08T02:12:46;101693.69;;;1.31;100.00
21357;BME280;10836;53.068;18.234;2023-04-08T02:15:14;101691.00;;;1.31;100.00
21357;BME280;10836;53.068;18.234;2023-04-08T02:17:46;101693.72;;;1.17;100.00
21357;BME280;10836;53.068;18.234;2023-04-08T02:20:23;101704.31;;;1.04;100.00
21357;BME280;10836;53.068;18.234;2023-04-08T02:25:29;101701.97;;;1.00;100.00
21357;BME280;10836;53.068;18.234;2023-04-08T02:27:58;101706.63;;;0.92;100.00
21357;BME280;10836;53.068;18.234;2023-04-08T02:30:26;101713.13;;;0.83;100.00
21357;BME280;10836;53.068;18.234;2023-04-08T02:32:54;101713.88;;;0.77;100.00
21357;BME280;10836;53.068;18.234;2023-04-08T02:35:23;101710.16;;;0.78;100.00
21357;BME280;10836;53.068;18.234;2023-04-08T02:37:50;101706.91;;;0.82;100.00
21357;BME280;10836;53.068;18.234;2023-04-08T02:40:29;101713.78;;;0.85;100.00
21357;BME280;10836;53.068;18.234;2023-04-08T02:42:57;101723.53;;;0.86;100.00
21357;BME280;10836;53.068;18.234;2023-04-08T02:45:43;101722.59;;;0.79;100.00
21357;BME280;10836;53.068;18.234;2023-04-08T02:48:11;101719.88;;;0.64;100.00
21357;BME280;10836;53.068;18.234;2023-04-08T02:50:38;101723.47;;;0.56;100.00
21357;BME280;10836;53.068;18.234;2023-04-08T02:53:07;101728.38;;;0.53;100.00
21357;BME280;10836;53.068;18.234;2023-04-08T02:55:34;101722.06;;;0.46;100.00
21357;BME280;10836;53.068;18.234;2023-04-08T02:58:01;101733.28;;;0.49;100.00
21357;BME280;10836;53.068;18.234;2023-04-08T03:00:28;101734.22;;;0.56;100.00
21357;BME280;10836;53.068;18.234;2023-04-08T03:02:55;101733.28;;;0.49;100.00
21357;BME280;10836;53.068;18.234;2023-04-08T03:05:25;101736.63;;;0.51;100.00
21357;BME280;10836;53.068;18.234;2023-04-08T03:07:52;101737.94;;;0.55;100.00
21357;BME280;10836;53.068;18.234;2023-04-08T03:10:19;101732.19;;;0.58;100.00
21357;BME280;10836;53.068;18.234;2023-04-08T03:12:46;101737.94;;;0.55;100.00
21357;BME280;10836;53.068;18.234;2023-04-08T03:15:13;101733.88;;;0.59;100.00
21357;BME280;10836;53.068;18.234;2023-04-08T03:17:40;101734.22;;;0.56;100.00
21357;BME280;10836;53.068;18.234;2023-04-08T03:20:07;101743.31;;;0.55;100.00
21357;BME280;10836;53.068;18.234;2023-04-08T03:22:35;101736.63;;;0.51;100.00
21357;BME280;10836;53.068;18.234;2023-04-08T03:25:02;101732.38;;;0.42;100.00
21357;BME280;10836;53.068;18.234;2023-04-08T03:27:29;101738.16;;;0.31;100.00
21357;BME280;10836;53.068;18.234;2023-04-08T03:29:57;101748.63;;;0.26;100.00
21357;BME280;10836;53.068;18.234;2023-04-08T03:32:24;101749.16;;;0.21;100.00
21357;BME280;10836;53.068;18.234;2023-04-08T03:34:51;101752.25;;;0.10;100.00
21357;BME280;10836;53.068;18.234;2023-04-08T03:37:19;101753.63;;;0.06;100.00
21357;BME280;10836;53.068;18.234;2023-04-08T03:39:46;101758.06;;;-0.01;100.00
21357;BME280;10836;53.068;18.234;2023-04-08T03:42:12;101757.75;;;-0.06;100.00
21357;BME280;10836;53.068;18.234;2023-04-08T03:44:39;101757.94;;;-0.08;100.00
21357;BME280;10836;53.068;18.234;2023-04-08T03:47:06;101766.38;;;-0.19;100.00
21357;BME280;10836;53.068;18.234;2023-04-08T03:49:33;101762.69;;;-0.18;100.00
21357;BME280;10836;53.068;18.234;2023-04-08T03:52:00;101763.75;;;-0.27;100.00
21357;BME280;10836;53.068;18.234;2023-04-08T03:54:27;101775.53;;;-0.36;100.00
21357;BME280;10836;53.068;18.234;2023-04-08T03:56:54;101772.44;;;-0.48;100.00
21357;BME280;10836;53.068;18.234;2023-04-08T03:59:22;101764.81;;;-0.36;100.00
21357;BME280;10836;53.068;18.234;2023-04-08T04:01:49;101769.28;;;-0.28;100.00
21357;BME280;10836;53.068;18.234;2023-04-08T04:04:17;101774.22;;;-0.40;100.00
21357;BME280;10836;53.068;18.234;2023-04-08T04:06:44;101774.94;;;-0.46;100.00
21357;BME280;10836;53.068;18.234;2023-04-08T04:09:11;101778.28;;;-0.44;100.00
21357;BME280;10836;53.068;18.234;2023-04-08T04:11:38;101779.22;;;-0.37;100.00
21357;BME280;10836;53.068;18.234;2023-04-08T04:14:05;101766.47;;;-0.35;100.00
21357;BME280;10836;53.068;18.234;2023-04-08T04:16:32;101777.34;;;-0.28;100.00
21357;BME280;10836;53.068;18.234;2023-04-08T04:18:59;101784.94;;;-0.40;100.00
21357;BME280;10836;53.068;18.234;2023-04-08T04:21:26;101785.50;;;-0.45;100.00
21357;BME280;10836;53.068;18.234;2023-04-08T04:23:53;101786.13;;;-0.43;100.00
21357;BME280;10836;53.068;18.234;2023-04-08T04:26:20;101789.38;;;-0.47;100.00
21357;BME280;10836;53.068;18.234;2023-04-08T04:28:47;101796.13;;;-0.59;100.00
21357;BME280;10836;53.068;18.234;2023-04-08T04:31:22;101794.44;;;-0.60;100.00
21357;BME280;10836;53.068;18.234;2023-04-08T04:33:52;101799.59;;;-0.51;100.00
21357;BME280;10836;53.068;18.234;2023-04-08T04:36:19;101805.38;;;-0.31;100.00
21357;BME280;10836;53.068;18.234;2023-04-08T04:38:46;101808.00;;;-0.23;100.00
21357;BME280;10836;53.068;18.234;2023-04-08T04:41:16;101813.41;;;-0.31;100.00
21357;BME280;10836;53.068;18.234;2023-04-08T04:43:43;101815.41;;;-0.25;100.00
21357;BME280;10836;53.068;18.234;2023-04-08T04:46:10;101817.44;;;-0.27;100.00
21357;BME280;10836;53.068;18.234;2023-04-08T04:48:37;101816.50;;;-0.11;100.00
21357;BME280;10836;53.068;18.234;2023-04-08T04:51:04;101814.44;;;-0.01;100.00
21357;BME280;10836;53.068;18.234;2023-04-08T04:53:33;101819.75;;;0.07;100.00
21357;BME280;10836;53.068;18.234;2023-04-08T04:56:00;101821.28;;;0.02;100.00
21357;BME280;10836;53.068;18.234;2023-04-08T04:58:28;101824.41;;;0.13;100.00
21357;BME280;10836;53.068;18.234;2023-04-08T05:00:56;101827.28;;;0.12;100.00
21357;BME280;10836;53.068;18.234;2023-04-08T05:03:23;101831.94;;;0.18;100.00
21357;BME280;10836;53.068;18.234;2023-04-08T05:05:51;101837.50;;;0.39;100.00
21357;BME280;10836;53.068;18.234;2023-04-08T05:08:19;101833.91;;;0.70;100.00
21357;BME280;10836;53.068;18.234;2023-04-08T05:10:46;101835.03;;;0.75;100.00
21357;BME280;10836;53.068;18.234;2023-04-08T05:13:16;101838.09;;;0.49;100.00
21357;BME280;10836;53.068;18.234;2023-04-08T05:15:43;101839.69;;;0.58;100.00
21357;BME280;10836;53.068;18.234;2023-04-08T05:18:13;101838.44;;;0.46;100.00
21357;BME280;10836;53.068;18.234;2023-04-08T05:20:40;101838.16;;;0.41;100.00
21357;BME280;10836;53.068;18.234;2023-04-08T05:23:07;101844.34;;;0.64;100.00
21357;BME280;10836;53.068;18.234;2023-04-08T05:25:34;101844.13;;;0.51;100.00
21357;BME280;10836;53.068;18.234;2023-04-08T05:28:02;101844.59;;;0.55;100.00
21357;BME280;10836;53.068;18.234;2023-04-08T05:30:29;101846.63;;;0.76;100.00
21357;BME280;10836;53.068;18.234;2023-04-08T05:32:56;101850.38;;;1.04;100.00
21357;BME280;10836;53.068;18.234;2023-04-08T05:35:26;101853.38;;;1.39;100.00
21357;BME280;10836;53.068;18.234;2023-04-08T05:37:54;101854.09;;;1.91;100.00
21357;BME280;10836;53.068;18.234;2023-04-08T05:40:20;101864.03;;;2.27;100.00
21357;BME280;10836;53.068;18.234;2023-04-08T05:42:48;101861.53;;;2.68;100.00
21357;BME280;10836;53.068;18.234;2023-04-08T05:45:14;101859.81;;;3.72;100.00
21357;BME280;10836;53.068;18.234;2023-04-08T05:47:42;101869.19;;;4.37;100.00
21357;BME280;10836;53.068;18.234;2023-04-08T05:50:09;101867.97;;;4.46;100.00
21357;BME280;10836;53.068;18.234;2023-04-08T05:52:44;101876.31;;;4.78;100.00
21357;BME280;10836;53.068;18.234;2023-04-08T05:55:12;101868.41;;;5.35;100.00
21357;BME280;10836;53.068;18.234;2023-04-08T05:57:40;101874.47;;;6.09;100.00
21357;BME280;10836;53.068;18.234;2023-04-08T06:00:08;101883.97;;;6.31;100.00
21357;BME280;10836;53.068;18.234;2023-04-08T06:02:36;101879.25;;;6.83;100.00
21357;BME280;10836;53.068;18.234;2023-04-08T06:05:04;101894.13;;;7.30;100.00
21357;BME280;10836;53.068;18.234;2023-04-08T06:07:32;101890.47;;;7.61;100.00
21357;BME280;10836;53.068;18.234;2023-04-08T06:10:00;101886.47;;;8.18;100.00
21357;BME280;10836;53.068;18.234;2023-04-08T06:12:27;101889.13;;;8.07;100.00
21357;BME280;10836;53.068;18.234;2023-04-08T06:14:54;101890.97;;;8.73;100.00
21357;BME280;10836;53.068;18.234;2023-04-08T06:17:24;101896.84;;;9.11;100.00
21357;BME280;10836;53.068;18.234;2023-04-08T06:19:52;101891.19;;;9.48;100.00
21357;BME280;10836;53.068;18.234;2023-04-08T06:22:19;101898.53;;;9.82;100.00
21357;BME280;10836;53.068;18.234;2023-04-08T06:24:46;101902.09;;;9.48;100.00
21357;BME280;10836;53.068;18.234;2023-04-08T06:27:14;101898.13;;;8.97;100.00
21357;BME280;10836;53.068;18.234;2023-04-08T06:29:40;101907.91;;;9.63;100.00
21357;BME280;10836;53.068;18.234;2023-04-08T06:32:09;101916.19;;;10.43;100.00
21357;BME280;10836;53.068;18.234;2023-04-08T06:34:36;101908.94;;;9.85;100.00
21357;BME280;10836;53.068;18.234;2023-04-08T06:37:04;101918.53;;;10.51;100.00
21357;BME280;10836;53.068;18.234;2023-04-08T06:39:32;101917.13;;;11.27;94.26
21357;BME280;10836;53.068;18.234;2023-04-08T06:41:59;101918.19;;;11.93;91.19
21357;BME280;10836;53.068;18.234;2023-04-08T06:44:37;101927.25;;;11.27;90.06
21357;BME280;10836;53.068;18.234;2023-04-08T06:47:04;101922.53;;;10.60;93.27
21357;BME280;10836;53.068;18.234;2023-04-08T06:49:31;101922.44;;;11.34;93.00
21357;BME280;10836;53.068;18.234;2023-04-08T06:51:58;101922.75;;;11.71;92.11
21357;BME280;10836;53.068;18.234;2023-04-08T06:54:25;101916.72;;;12.08;88.69
21357;BME280;10836;53.068;18.234;2023-04-08T06:56:52;101926.09;;;12.60;85.37
21357;BME280;10836;53.068;18.234;2023-04-08T06:59:19;101936.50;;;10.76;92.43
21357;BME280;10836;53.068;18.234;2023-04-08T07:01:46;101938.66;;;11.74;90.95
21357;BME280;10836;53.068;18.234;2023-04-08T07:04:13;101946.63;;;11.92;84.84
21357;BME280;10836;53.068;18.234;2023-04-08T07:06:40;101944.16;;;11.57;91.81
21357;BME280;10836;53.068;18.234;2023-04-08T07:09:07;101945.31;;;11.11;90.40
21357;BME280;10836;53.068;18.234;2023-04-08T07:11:34;101944.41;;;9.62;98.52
21357;BME280;10836;53.068;18.234;2023-04-08T07:14:01;101954.63;;;8.60;100.00
21357;BME280;10836;53.068;18.234;2023-04-08T07:16:28;101963.47;;;8.55;100.00
21357;BME280;10836;53.068;18.234;2023-04-08T07:18:55;101959.84;;;8.07;100.00
21357;BME280;10836;53.068;18.234;2023-04-08T07:21:22;101952.06;;;9.18;100.00
21357;BME280;10836;53.068;18.234;2023-04-08T07:23:49;101962.13;;;9.18;100.00
21357;BME280;10836;53.068;18.234;2023-04-08T07:26:16;101963.75;;;9.49;100.00
21357;BME280;10836;53.068;18.234;2023-04-08T07:28:44;101960.44;;;9.47;100.00
21357;BME280;10836;53.068;18.234;2023-04-08T07:31:13;101964.25;;;8.74;100.00
21357;BME280;10836;53.068;18.234;2023-04-08T07:33:41;101966.16;;;7.64;100.00
21357;BME280;10836;53.068;18.234;2023-04-08T07:36:09;101969.81;;;7.76;100.00
21357;BME280;10836;53.068;18.234;2023-04-08T07:38:37;101978.63;;;7.22;100.00
21357;BME280;10836;53.068;18.234;2023-04-08T07:41:05;101972.75;;;7.50;100.00
21357;BME280;10836;53.068;18.234;2023-04-08T07:43:32;101977.69;;;7.34;100.00
21357;BME280;10836;53.068;18.234;2023-04-08T07:46:04;101974.03;;;7.22;100.00
21357;BME280;10836;53.068;18.234;2023-04-08T07:48:32;101975.94;;;7.15;100.00
21357;BME280;10836;53.068;18.234;2023-04-08T07:51:04;101978.13;;;7.31;100.00
21357;BME280;10836;53.068;18.234;2023-04-08T07:53:36;101987.72;;;7.34;100.00
21357;BME280;10836;53.068;18.234;2023-04-08T07:56:13;101990.72;;;7.51;100.00
21357;BME280;10836;53.068;18.234;2023-04-08T07:58:40;101991.56;;;7.76;100.00
21357;BME280;10836;53.068;18.234;2023-04-08T08:01:21;101996.91;;;7.83;100.00
21357;BME280;10836;53.068;18.234;2023-04-08T08:03:49;101989.88;;;7.75;100.00
21357;BME280;10836;53.068;18.234;2023-04-08T08:06:18;101998.16;;;7.62;100.00
21357;BME280;10836;53.068;18.234;2023-04-08T08:08:45;102003.34;;;7.39;100.00
21357;BME280;10836;53.068;18.234;2023-04-08T08:11:12;102004.13;;;7.21;100.00
21357;BME280;10836;53.068;18.234;2023-04-08T08:13:39;102006.94;;;7.01;100.00
21357;BME280;10836;53.068;18.234;2023-04-08T08:16:06;102002.94;;;6.72;100.00
21357;BME280;10836;53.068;18.234;2023-04-08T08:18:37;102005.88;;;6.71;100.00
21357;BME280;10836;53.068;18.234;2023-04-08T08:21:06;102014.56;;;6.48;100.00
21357;BME280;10836;53.068;18.234;2023-04-08T08:23:34;102004.63;;;6.66;100.00
21357;BME280;10836;53.068;18.234;2023-04-08T08:26:02;102006.13;;;6.62;100.00
21357;BME280;10836;53.068;18.234;2023-04-08T08:28:29;102008.22;;;6.60;100.00
21357;BME280;10836;53.068;18.234;2023-04-08T08:30:56;102008.97;;;6.81;100.00
21357;BME280;10836;53.068;18.234;2023-04-08T08:33:24;102020.91;;;7.11;100.00
21357;BME280;10836;53.068;18.234;2023-04-08T08:35:51;102015.75;;;7.34;100.00
21357;BME280;10836;53.068;18.234;2023-04-08T08:38:18;102015.75;;;7.34;100.00
21357;BME280;10836;53.068;18.234;2023-04-08T08:40:45;102027.19;;;7.37;100.00
21357;BME280;10836;53.068;18.234;2023-04-08T08:43:12;102019.16;;;7.23;100.00
21357;BME280;10836;53.068;18.234;2023-04-08T08:45:40;102019.94;;;7.30;100.00
21357;BME280;10836;53.068;18.234;2023-04-08T08:48:08;102025.56;;;7.60;100.00
21357;BME280;10836;53.068;18.234;2023-04-08T08:50:35;102028.09;;;8.05;100.00
21357;BME280;10836;53.068;18.234;2023-04-08T08:53:06;102021.59;;;8.24;100.00
21357;BME280;10836;53.068;18.234;2023-04-08T08:55:33;102023.06;;;8.45;100.00
21357;BME280;10836;53.068;18.234;2023-04-08T08:58:20;102030.13;;;8.10;100.00
21357;BME280;10836;53.068;18.234;2023-04-08T09:00:47;102027.69;;;8.01;100.00
21357;BME280;10836;53.068;18.234;2023-04-08T09:03:18;102031.00;;;8.47;100.00
21357;BME280;10836;53.068;18.234;2023-04-08T09:05:54;102030.72;;;9.03;100.00
21357;BME280;10836;53.068;18.234;2023-04-08T09:08:32;102028.06;;;9.26;100.00
21357;BME280;10836;53.068;18.234;2023-04-08T09:11:17;102029.00;;;10.32;98.59
21357;BME280;10836;53.068;18.234;2023-04-08T09:13:45;102039.53;;;11.20;93.61
21357;BME280;10836;53.068;18.234;2023-04-08T09:16:14;102036.16;;;11.47;88.48
21357;BME280;10836;53.068;18.234;2023-04-08T09:18:44;102037.28;;;11.96;82.14
21357;BME280;10836;53.068;18.234;2023-04-08T09:21:14;102037.97;;;12.25;83.13
21357;BME280;10836;53.068;18.234;2023-04-08T09:23:47;102039.50;;;12.54;83.38
21357;BME280;10836;53.068;18.234;2023-04-08T09:26:17;102041.97;;;12.78;76.44
21357;BME280;10836;53.068;18.234;2023-04-08T09:28:58;102040.03;;;13.00;81.96
21357;BME280;10836;53.068;18.234;2023-04-08T09:31:34;102048.16;;;12.08;76.34
21357;BME280;10836;53.068;18.234;2023-04-08T09:34:14;102044.53;;;13.65;74.77
21357;BME280;10836;53.068;18.234;2023-04-08T09:36:43;102044.22;;;13.93;66.70
21357;BME280;10836;53.068;18.234;2023-04-08T09:39:10;102044.28;;;15.18;60.38
21357;BME280;10836;53.068;18.234;2023-04-08T09:41:37;102040.97;;;12.23;67.27
21357;BME280;10836;53.068;18.234;2023-04-08T09:44:07;102039.97;;;11.46;69.95
21357;BME280;10836;53.068;18.234;2023-04-08T09:52:14;102038.69;;;13.56;67.89
21357;BME280;10836;53.068;18.234;2023-04-08T09:55:05;102030.88;;;15.83;59.27
21357;BME280;10836;53.068;18.234;2023-04-08T09:57:42;102039.94;;;16.14;55.38
21357;BME280;10836;53.068;18.234;2023-04-08T10:00:15;102030.94;;;16.83;54.66
21357;BME280;10836;53.068;18.234;2023-04-08T10:02:57;102042.00;;;16.57;52.81
21357;BME280;10836;53.068;18.234;2023-04-08T10:05:26;102030.75;;;17.13;51.17
21357;BME280;10836;53.068;18.234;2023-04-08T10:07:55;102021.00;;;18.23;48.47
21357;BME280;10836;53.068;18.234;2023-04-08T10:10:22;102024.19;;;18.35;47.17
21357;BME280;10836;53.068;18.234;2023-04-08T10:12:50;102016.56;;;17.30;46.97
21357;BME280;10836;53.068;18.234;2023-04-08T10:15:25;102019.97;;;16.52;51.45
21357;BME280;10836;53.068;18.234;2023-04-08T10:17:55;102024.00;;;15.95;54.32
21357;BME280;10836;53.068;18.234;2023-04-08T10:23:07;102016.19;;;17.42;49.92
21357;BME280;10836;53.068;18.234;2023-04-08T10:25:34;102023.44;;;18.01;45.71
21357;BME280;10836;53.068;18.234;2023-04-08T10:28:23;102019.00;;;18.76;46.77
21357;BME280;10836;53.068;18.234;2023-04-08T10:30:55;102017.03;;;17.76;46.97
21357;BME280;10836;53.068;18.234;2023-04-08T10:33:30;102016.53;;;18.75;43.30
21357;BME280;10836;53.068;18.234;2023-04-08T10:38:29;102012.16;;;17.63;46.59
21357;BME280;10836;53.068;18.234;2023-04-08T10:40:55;102013.41;;;19.19;44.00
21357;BME280;10836;53.068;18.234;2023-04-08T10:43:23;102009.09;;;18.22;45.20
21357;BME280;10836;53.068;18.234;2023-04-08T10:45:52;102011.41;;;18.15;43.88
21357;BME280;10836;53.068;18.234;2023-04-08T10:48:21;102013.41;;;18.57;45.60
21357;BME280;10836;53.068;18.234;2023-04-08T10:50:55;102004.91;;;19.67;42.83
21357;BME280;10836;53.068;18.234;2023-04-08T10:56:13;101996.94;;;19.27;41.11
21357;BME280;10836;53.068;18.234;2023-04-08T10:58:52;102007.34;;;21.10;39.33
21357;BME280;10836;53.068;18.234;2023-04-08T11:01:21;102009.81;;;20.98;37.82
21357;BME280;10836;53.068;18.234;2023-04-08T11:03:48;102007.94;;;20.71;37.87
21357;BME280;10836;53.068;18.234;2023-04-08T11:06:16;102003.34;;;19.93;39.97
21357;BME280;10836;53.068;18.234;2023-04-08T11:08:43;102002.09;;;21.22;37.71
21357;BME280;10836;53.068;18.234;2023-04-08T11:11:10;102001.31;;;20.81;36.74
21357;BME280;10836;53.068;18.234;2023-04-08T11:13:42;102005.97;;;21.66;37.30
21357;BME280;10836;53.068;18.234;2023-04-08T11:16:20;102011.63;;;20.67;37.24
21357;BME280;10836;53.068;18.234;2023-04-08T11:18:48;102004.34;;;19.13;41.33
21357;BME280;10836;53.068;18.234;2023-04-08T11:21:16;102004.72;;;17.92;44.06
21357;BME280;10836;53.068;18.234;2023-04-08T11:23:43;101999.28;;;19.02;42.07
21357;BME280;10836;53.068;18.234;2023-04-08T11:26:10;102001.50;;;19.88;40.20
21357;BME280;10836;53.068;18.234;2023-04-08T11:28:37;101995.16;;;20.84;38.87
21357;BME280;10836;53.068;18.234;2023-04-08T11:31:05;102000.94;;;21.68;36.04
21357;BME280;10836;53.068;18.234;2023-04-08T11:33:34;101999.59;;;20.71;37.50
21357;BME280;10836;53.068;18.234;2023-04-08T11:36:02;102007.13;;;20.71;38.16
21357;BME280;10836;53.068;18.234;2023-04-08T11:38:37;102001.56;;;20.43;38.89
21357;BME280;10836;53.068;18.234;2023-04-08T11:41:04;102002.00;;;21.00;37.71
21357;BME280;10836;53.068;18.234;2023-04-08T11:43:31;102000.25;;;21.04;36.91
21357;BME280;10836;53.068;18.234;2023-04-08T11:45:58;101997.47;;;21.63;35.44
21357;BME280;10836;53.068;18.234;2023-04-08T11:48:26;101993.91;;;22.24;34.24
21357;BME280;10836;53.068;18.234;2023-04-08T11:51:05;101998.75;;;22.58;34.55
21357;BME280;10836;53.068;18.234;2023-04-08T11:53:35;102000.66;;;22.01;34.91
21357;BME280;10836;53.068;18.234;2023-04-08T11:56:17;101996.50;;;21.67;34.13
21357;BME280;10836;53.068;18.234;2023-04-08T11:58:44;101993.13;;;20.76;37.61
21357;BME280;10836;53.068;18.234;2023-04-08T12:01:12;101996.53;;;20.59;36.17
21357;BME280;10836;53.068;18.234;2023-04-08T12:03:53;101992.38;;;20.02;38.55
21357;BME280;10836;53.068;18.234;2023-04-08T12:06:20;101989.81;;;18.41;41.14
21357;BME280;10836;53.068;18.234;2023-04-08T12:08:48;101986.56;;;17.18;42.57
21357;BME280;10836;53.068;18.234;2023-04-08T12:11:15;101988.47;;;18.15;42.70
21357;BME280;10836;53.068;18.234;2023-04-08T12:13:46;101984.88;;;18.38;41.91
21357;BME280;10836;53.068;18.234;2023-04-08T12:16:16;101995.22;;;19.13;40.51
21357;BME280;10836;53.068;18.234;2023-04-08T12:18:43;101993.53;;;20.14;37.35
21357;BME280;10836;53.068;18.234;2023-04-08T12:21:10;101985.19;;;19.36;41.08
21357;BME280;10836;53.068;18.234;2023-04-08T12:23:37;101977.56;;;19.09;39.55
21357;BME280;10836;53.068;18.234;2023-04-08T12:26:04;101984.97;;;19.51;40.04
21357;BME280;10836;53.068;18.234;2023-04-08T12:28:32;101980.81;;;20.54;36.97
21357;BME280;10836;53.068;18.234;2023-04-08T12:31:00;101979.31;;;19.88;36.84
21357;BME280;10836;53.068;18.234;2023-04-08T12:33:28;101970.28;;;18.56;41.94
21357;BME280;10836;53.068;18.234;2023-04-08T12:35:55;101974.00;;;18.47;40.36
21357;BME280;10836;53.068;18.234;2023-04-08T12:38:25;101979.75;;;18.93;41.42
21357;BME280;10836;53.068;18.234;2023-04-08T12:40:53;101978.63;;;18.94;38.95
21357;BME280;10836;53.068;18.234;2023-04-08T12:43:21;101972.06;;;19.60;39.50
21357;BME280;10836;53.068;18.234;2023-04-08T12:45:49;101974.28;;;17.98;40.85
21357;BME280;10836;53.068;18.234;2023-04-08T12:48:17;101975.47;;;18.39;39.48
21357;BME280;10836;53.068;18.234;2023-04-08T12:50:43;101970.47;;;17.31;43.96
21357;BME280;10836;53.068;18.234;2023-04-08T12:53:11;101973.47;;;17.68;42.12
21357;BME280;10836;53.068;18.234;2023-04-08T12:55:38;101975.28;;;17.78;42.69
21357;BME280;10836;53.068;18.234;2023-04-08T12:58:05;101976.63;;;18.33;41.60
21357;BME280;10836;53.068;18.234;2023-04-08T13:00:32;101968.53;;;17.60;44.22
21357;BME280;10836;53.068;18.234;2023-04-08T13:02:59;101968.19;;;16.44;44.00
21357;BME280;10836;53.068;18.234;2023-04-08T13:05:26;101966.81;;;17.35;42.65